EGTE/EXT METAR and TAF weather

Enter ICAO airport designator
Station Type Date Time Source
EGTE METAR 2019/11/15 02:20 UTC NOAA

EGTE 150220Z 36013KT 9999 BKN012 05/02 Q1005


Station Type Date Time Source
EGTE Decoded METAR 2019/11/15 02:20 UTC NOAA

Exeter Airport, United Kingdom (EGTE) 50-44N 003-25W
Nov 14, 2019 - 09:20 PM EST / 2019.11.15 0220 UTC
Wind: from the N (360 degrees) at 15 MPH (13 KT):0
Visibility: greater than 7 mile(s):0
Sky conditions: mostly cloudy
Temperature: 41 F (5 C)
Dew Point: 35 F (2 C)
Relative Humidity: 80%
Pressure (altimeter): 29.68 in. Hg (1005 hPa)
ob: EGTE 150220Z 36013KT 9999 BKN012 05/02 Q1005
cycle: 2

Station Type Date Time Source
EGTE TAF 2012/04/19 12:15 UTC NOAA

TAF TAF EGTE 191401Z 1912/1924 31016KT 9999 SCT030 SCT035 PROB40
TEMPO 1915/1918 7000 SHRA BKN014

Example: see airport list